• Join FlightAware (Why Join?)
  • Login
  • US Flag 
Rudolph Flight #1: Arrived! 
09:23PM EST


 

Airport Tracker/Info


-or-


 

Live Flight TrackerFlight Track Log ✈ ECJ71 ✈ 10-May-2013 ✈ KRME - KABE

Flight Track Log - Related Links

Times and Time Zones

All times are in EDT time to prevent confusion due to time zone crossing. See the ECJ71 flight status page for this flight to view local times or setup timezone preferences in your user account.

Time Position Orientation Groundspeed Altitude Reporting Facility
EDT Latitude Longitude Course Direction KTS MPH feet Rate Location/Type
05:07PM 43.2006 -75.3683 137° Southeast 213 245 3,400  Level Boston Center
05:09PM 43.1350 -75.3311 157° South 263 303 8,500 4,320 Climbing Boston Center
05:10PM 43.0667 -75.3050 164° South 263 303 12,900 3,480 Climbing Boston Center
05:11PM 42.9903 -75.2814 167° South 263 303 15,500 1,500 Climbing Boston Center
05:12PM 42.8953 -75.2461 165° South 309 356 16,000 240 Climbing Boston Center
05:13PM 42.7844 -75.2522 182° South 371 427 16,000 -60 Level Boston Center
05:14PM 42.6797 -75.2731 188° South 377 434 15,900 -60 Descending Boston Center
05:15PM 42.5792 -75.2936 189° South 377 434 15,900  Level Boston Center
05:17PM 42.3478 -75.3328 187° South 386 444 16,000  Climbing New York Center
05:18PM 42.2411 -75.3478 186° South 391 450 16,000  Level New York Center
05:19PM 42.1319 -75.3708 189° South 391 450 16,000  Level New York Center
05:20PM 42.0269 -75.3972 191° South 396 456 16,000 -300 Level New York Center
05:21PM 41.9056 -75.4108 185° South 401 461 15,500 -1,020 Descending New York Center
05:22PM 41.8008 -75.4258 186° South 392 451 14,000 -1,500 Descending New York Center
05:23PM 41.7083 -75.4472 190° South 358 412 12,500 -1,560 Descending New York Center
05:24PM 41.6289 -75.4611 187° South 339 390 10,900 -1,620 Descending New York Center
05:25PM 41.5386 -75.4742 186° South 334 384 9,400 -1,500 Descending New York Center
05:26PM 41.4425 -75.4867 186° South 328 377 8,000 -1,440 Descending New York Center
05:27PM 41.3553 -75.4806 177° South 323 372 6,600 -1,020 Descending New York Center
05:28PM 41.2806 -75.4700 174° South 297 342 6,000 -360 Descending New York Center
05:29PM 41.2161 -75.4653 177° South 265 305 6,000  Level New York Center
05:30PM 41.1456 -75.4606 177° South 259 298 6,000  Level New York Center
05:31PM 41.0686 -75.4553 177° South 253 291 6,000  Level New York Center
05:32PM 41.0022 -75.4533 179° South 253 291 6,000 -300 Level New York Center
05:33PM 40.9253 -75.4453 175° South 253 291 5,400 -840 Descending New York Center
05:34PM 40.8525 -75.4403 177° South 253 291 4,400 -1,020 Descending New York Center
05:35PM 40.7844 -75.4275 172° South 253 291 3,500 -780 Descending New York Center
05:36PM 40.7322 -75.3744 142° Southeast 244 281 2,900 -900 Descending New York Center
05:37PM 40.6925 -75.3775 183° South 160 184 1,700 -900 Descending New York Center
05:38PM 40.6550 -75.3803 183° South 152 175 1,200 4,680 Descending New York Center
05:39PM 40.6133 -75.3775 177° South 152 175 11,000 4,800 Climbing New York Center
05:40PM 40.5719 -75.3747 177° South 152 175 11,000  Level New York Center
05:41PM 40.5303 -75.3719 177° South 152 175 11,000  Level New York Center